Time;durP1;ratioP1;P1;durP2;ratioP2;P2;SDS_P1;SDS_P2;PMS_P1;PMS_P2;Temp;Humidity;BMP_temperature;BMP_pressure;BME280_temperature;BME280_humidity;BME280_pressure;Samples;Min_cycle;Max_cycle;Signal;HPM_P1;HPM_P2
2021/03/18 00:01:06;;;;;;;7.80;4.97;;;2.20;99.90;;;;;;5006412;28;20093;-71
2021/03/18 00:03:35;;;;;;;7.32;4.65;;;2.20;99.90;;;;;;5016472;28;20026;-74
2021/03/18 00:06:01;;;;;;;6.20;5.05;;;2.20;99.90;;;;;;4988653;28;20058;-73
2021/03/18 00:08:27;;;;;;;5.97;5.35;;;2.20;99.90;;;;;;4977326;28;20403;-73
2021/03/18 00:10:54;;;;;;;9.55;5.65;;;2.20;99.90;;;;;;4977973;28;20061;-73
2021/03/18 00:13:23;;;;;;;6.50;4.15;;;2.20;99.90;;;;;;4978391;28;20026;-73
2021/03/18 00:15:48;;;;;;;5.50;4.95;;;2.20;99.90;;;;;;4977657;28;20023;-73
2021/03/18 00:18:16;;;;;;;5.22;4.50;;;2.20;99.90;;;;;;4975460;28;20029;-74
2021/03/18 00:20:42;;;;;;;9.10;5.60;;;2.20;99.90;;;;;;4986273;28;20019;-72
2021/03/18 00:23:08;;;;;;;5.70;5.20;;;2.10;99.90;;;;;;4994832;28;20038;-72
2021/03/18 00:25:34;;;;;;;7.45;4.82;;;2.20;99.90;;;;;;5007893;28;20030;-72
2021/03/18 00:28:00;;;;;;;8.25;5.18;;;2.20;99.90;;;;;;5008281;28;20042;-69
2021/03/18 00:30:27;;;;;;;8.65;5.60;;;2.10;99.90;;;;;;5017034;28;20018;-72
2021/03/18 00:32:52;;;;;;;9.75;6.55;;;2.20;99.90;;;;;;5015271;28;20030;-71
2021/03/18 00:35:19;;;;;;;6.88;4.75;;;2.30;99.90;;;;;;5015136;28;20030;-70
2021/03/18 00:37:47;;;;;;;7.13;5.22;;;2.30;99.90;;;;;;4986876;28;20125;-70
2021/03/18 00:40:13;;;;;;;6.82;5.30;;;2.40;99.90;;;;;;5013558;28;20076;-71
2021/03/18 00:42:52;;;;;;;6.22;4.68;;;2.40;99.90;;;;;;5006084;28;20034;-71
2021/03/18 00:45:19;;;;;;;6.25;4.60;;;2.40;99.90;;;;;;4985627;28;20027;-71
2021/03/18 00:47:45;;;;;;;5.38;4.22;;;2.50;99.90;;;;;;4982416;28;20035;-70
2021/03/18 00:50:14;;;;;;;6.70;4.50;;;2.40;99.90;;;;;;5000146;28;20046;-69
2021/03/18 00:52:40;;;;;;;9.18;4.70;;;2.50;99.90;;;;;;4995123;28;20048;-70
2021/03/18 00:55:06;;;;;;;5.22;3.90;;;2.40;99.90;;;;;;5008289;28;20026;-72
2021/03/18 00:57:32;;;;;;;7.28;4.15;;;2.30;99.90;;;;;;4999564;28;20053;-70
2021/03/18 00:59:57;;;;;;;4.10;3.58;;;2.30;99.90;;;;;;4996718;28;20081;-70
2021/03/18 01:02:23;;;;;;;5.78;4.00;;;2.40;99.90;;;;;;5007223;28;20041;-71
2021/03/18 01:04:50;;;;;;;4.72;3.80;;;2.40;99.90;;;;;;4998622;28;20066;-71
2021/03/18 01:07:15;;;;;;;5.90;4.00;;;2.40;99.90;;;;;;5005112;28;20116;-72
2021/03/18 01:09:41;;;;;;;5.20;4.43;;;2.40;99.90;;;;;;5016763;28;20057;-70
2021/03/18 01:12:07;;;;;;;5.10;4.18;;;2.40;99.90;;;;;;5009131;28;20037;-70
2021/03/18 01:14:32;;;;;;;5.65;3.15;;;2.40;99.90;;;;;;5004842;28;20510;-69
2021/03/18 01:16:58;;;;;;;8.85;3.83;;;2.40;99.90;;;;;;4997084;28;20046;-70
2021/03/18 01:19:24;;;;;;;5.55;4.22;;;2.40;99.90;;;;;;5002283;28;20494;-70
2021/03/18 01:21:53;;;;;;;6.53;4.18;;;2.30;99.90;;;;;;5003255;28;20386;-69
2021/03/18 01:24:19;;;;;;;5.32;4.55;;;2.40;99.90;;;;;;5012420;28;20057;-69
2021/03/18 01:26:45;;;;;;;4.78;3.78;;;2.40;99.90;;;;;;5014524;28;20034;-66
2021/03/18 01:29:12;;;;;;;5.72;4.07;;;2.30;99.90;;;;;;5013804;28;20030;-68
2021/03/18 01:31:38;;;;;;;5.30;3.70;;;2.30;99.90;;;;;;5018931;28;20490;-70
2021/03/18 01:34:07;;;;;;;9.25;3.90;;;2.30;99.90;;;;;;5007403;28;20067;-70
2021/03/18 01:36:35;;;;;;;6.13;4.20;;;2.30;99.90;;;;;;5013133;28;20022;-68
2021/03/18 01:39:02;;;;;;;6.55;3.67;;;2.30;99.90;;;;;;4993059;28;20125;-69
2021/03/18 01:41:28;;;;;;;5.03;4.10;;;2.30;99.90;;;;;;5001197;28;20022;-69
2021/03/18 01:43:55;;;;;;;7.47;3.90;;;2.20;99.90;;;;;;5007567;28;20022;-69
2021/03/18 01:46:22;;;;;;;6.68;3.88;;;2.20;99.90;;;;;;5015571;28;20034;-70
2021/03/18 01:48:47;;;;;;;6.50;3.80;;;2.20;99.90;;;;;;5015412;28;20045;-69
2021/03/18 01:51:16;;;;;;;4.93;3.80;;;2.20;99.90;;;;;;5012669;28;20522;-69
2021/03/18 01:53:42;;;;;;;5.43;4.05;;;2.30;99.90;;;;;;5017765;28;20018;-69
2021/03/18 01:56:08;;;;;;;7.43;4.18;;;2.30;99.90;;;;;;5010539;28;20443;-69
2021/03/18 01:58:36;;;;;;;6.03;4.30;;;2.30;99.90;;;;;;5015456;28;20042;-69
2021/03/18 02:01:06;;;;;;;5.55;3.63;;;2.30;99.90;;;;;;5018364;28;20022;-70
2021/03/18 02:03:32;;;;;;;5.43;4.10;;;2.30;99.90;;;;;;5012424;28;20030;-70
2021/03/18 02:05:57;;;;;;;5.68;3.90;;;2.30;99.90;;;;;;5007622;28;20057;-69
2021/03/18 02:08:23;;;;;;;6.60;3.67;;;2.30;99.90;;;;;;5009879;28;20107;-70
2021/03/18 02:10:50;;;;;;;6.28;4.05;;;2.30;99.90;;;;;;5003327;28;20034;-70
2021/03/18 02:13:17;;;;;;;4.45;3.78;;;2.30;99.90;;;;;;5013689;28;20033;-69
2021/03/18 02:15:51;;;;;;;5.07;3.60;;;2.30;99.90;;;;;;5009085;28;20401;-70
2021/03/18 02:18:36;;;;;;;4.63;3.95;;;2.30;99.90;;;;;;5010862;28;20034;-70
2021/03/18 02:21:26;;;;;;;6.85;3.90;;;2.20;99.90;;;;;;5010477;28;20030;-69
2021/03/18 02:24:00;;;;;;;4.73;3.67;;;2.20;99.90;;;;;;5004887;28;20034;-70
2021/03/18 02:26:38;;;;;;;5.82;4.28;;;2.20;99.90;;;;;;5024338;28;20501;-69
2021/03/18 02:29:27;;;;;;;4.75;3.17;;;2.10;99.90;;;;;;5018873;28;20076;-69
2021/03/18 02:32:05;;;;;;;5.63;3.78;;;2.10;99.90;;;;;;5002827;28;20370;-69
2021/03/18 02:35:27;;;;;;;5.28;3.90;;;2.00;99.90;;;;;;5005655;28;20036;-70
2021/03/18 02:38:10;;;;;;;6.60;4.13;;;2.00;99.90;;;;;;4998796;28;20073;-69
2021/03/18 02:40:40;;;;;;;8.48;4.05;;;2.10;99.90;;;;;;5001917;28;20506;-70
2021/03/18 02:43:09;;;;;;;4.28;3.80;;;2.10;99.90;;;;;;4999370;28;20109;-70
2021/03/18 02:45:43;;;;;;;5.95;4.30;;;2.10;99.90;;;;;;5004813;28;20506;-69
2021/03/18 02:48:13;;;;;;;5.88;4.18;;;2.20;99.90;;;;;;4998663;28;20076;-70
2021/03/18 02:50:40;;;;;;;3.65;3.15;;;2.20;99.90;;;;;;4999672;28;20109;-69
2021/03/18 02:53:07;;;;;;;4.57;3.85;;;2.20;99.90;;;;;;5005123;28;20386;-70
2021/03/18 02:55:34;;;;;;;7.50;4.00;;;2.20;99.90;;;;;;4997981;28;20054;-69
2021/03/18 02:58:05;;;;;;;10.38;4.07;;;2.20;99.90;;;;;;4998001;28;20073;-69
2021/03/18 03:00:32;;;;;;;5.55;3.92;;;2.30;99.90;;;;;;5005184;28;20034;-69
2021/03/18 03:02:59;;;;;;;5.03;3.75;;;2.30;99.90;;;;;;5005136;28;20122;-70
2021/03/18 03:05:26;;;;;;;6.22;4.10;;;2.30;99.90;;;;;;5007764;28;20105;-69
2021/03/18 03:07:53;;;;;;;4.70;3.40;;;2.40;99.90;;;;;;4998347;28;20114;-69
2021/03/18 03:10:21;;;;;;;6.43;3.30;;;2.40;99.90;;;;;;4999975;28;20382;-69
2021/03/18 03:12:48;;;;;;;8.27;4.88;;;2.40;99.90;;;;;;5005018;28;20029;-70
2021/03/18 03:15:14;;;;;;;5.25;2.92;;;2.30;99.90;;;;;;5002484;28;20023;-70
2021/03/18 03:17:41;;;;;;;4.13;3.70;;;2.40;99.90;;;;;;5009374;28;20025;-70
2021/03/18 03:20:14;;;;;;;6.45;3.35;;;2.40;99.90;;;;;;5010347;28;20049;-68
2021/03/18 03:22:42;;;;;;;5.80;3.42;;;2.40;99.90;;;;;;5009586;28;20038;-69
2021/03/18 03:25:10;;;;;;;5.78;2.95;;;2.40;99.90;;;;;;5015773;28;20037;-68
2021/03/18 03:27:37;;;;;;;4.72;3.25;;;2.40;99.90;;;;;;5016659;28;20049;-70
2021/03/18 03:30:07;;;;;;;7.03;4.00;;;2.40;99.90;;;;;;5011444;28;20374;-69
2021/03/18 03:32:33;;;;;;;5.07;3.17;;;2.50;99.90;;;;;;5018210;28;20112;-68
2021/03/18 03:35:00;;;;;;;5.15;3.97;;;2.40;99.90;;;;;;5013045;28;20072;-68
2021/03/18 03:37:25;;;;;;;4.88;3.95;;;2.50;99.90;;;;;;5006500;28;20030;-70
2021/03/18 03:39:51;;;;;;;5.20;4.43;;;2.40;99.90;;;;;;5001923;28;20014;-68
2021/03/18 03:42:18;;;;;;;4.35;3.35;;;2.40;99.90;;;;;;5004594;28;20487;-69
2021/03/18 03:44:43;;;;;;;5.20;3.33;;;2.40;99.90;;;;;;5014249;28;20033;-68
2021/03/18 03:47:10;;;;;;;3.88;3.10;;;2.40;99.90;;;;;;5003128;28;20034;-70
2021/03/18 03:49:37;;;;;;;4.70;3.33;;;2.40;99.90;;;;;;4995255;28;20389;-70
2021/03/18 03:52:31;;;;;;;6.88;3.40;;;2.30;99.90;;;;;;5002345;28;20109;-69
2021/03/18 03:55:07;;;;;;;4.13;3.22;;;2.30;99.90;;;;;;4999028;28;20022;-70
2021/03/18 03:57:48;;;;;;;8.68;4.15;;;2.40;99.90;;;;;;5007002;28;20022;-70
2021/03/18 04:00:15;;;;;;;;;;;2.30;99.90;;;;;;5013318;28;20536;-69
2021/03/18 04:02:44;;;;;;;4.05;3.13;;;2.30;99.90;;;;;;5011039;28;20388;-68
2021/03/18 04:05:11;;;;;;;8.60;3.40;;;2.40;99.90;;;;;;5011819;28;20030;-70
2021/03/18 04:07:39;;;;;;;7.18;4.50;;;2.40;99.90;;;;;;5012865;28;20497;-69
2021/03/18 04:10:06;;;;;;;5.78;3.55;;;2.30;99.90;;;;;;5010589;28;20057;-70
2021/03/18 04:12:38;;;;;;;9.45;4.70;;;2.30;99.90;;;;;;5009002;28;20105;-70
2021/03/18 04:15:10;;;;;;;5.88;3.10;;;2.40;99.90;;;;;;5012470;28;20056;-70
2021/03/18 04:17:40;;;;;;;5.18;3.40;;;2.20;99.90;;;;;;4995547;28;20072;-70
2021/03/18 04:20:10;;;;;;;8.02;4.93;;;2.20;99.90;;;;;;5002903;28;20474;-69
2021/03/18 04:22:36;;;;;;;8.40;5.97;;;2.20;99.90;;;;;;5003956;28;20080;-69
2021/03/18 04:25:04;;;;;;;7.22;3.42;;;2.20;99.90;;;;;;5003588;28;20026;-69
2021/03/18 04:27:31;;;;;;;4.13;3.50;;;2.30;99.90;;;;;;5005096;28;20489;-69
2021/03/18 04:29:58;;;;;;;4.78;3.78;;;2.20;99.90;;;;;;5014566;28;20109;-71
2021/03/18 04:32:25;;;;;;;7.68;3.83;;;2.30;99.90;;;;;;5004982;28;20486;-69
2021/03/18 04:34:52;;;;;;;3.95;3.13;;;2.30;99.90;;;;;;5005847;28;20049;-70
2021/03/18 04:37:18;;;;;;;4.25;3.33;;;2.30;99.90;;;;;;5007850;28;20049;-70
2021/03/18 04:39:45;;;;;;;5.78;3.40;;;2.20;99.90;;;;;;5007748;28;20027;-69
2021/03/18 04:42:12;;;;;;;6.75;4.38;;;2.30;99.90;;;;;;5012616;28;20026;-70
2021/03/18 04:44:40;;;;;;;3.83;3.40;;;2.20;99.90;;;;;;5012818;28;20089;-69
2021/03/18 04:47:05;;;;;;;4.05;2.95;;;2.20;99.90;;;;;;5010568;28;20018;-70
2021/03/18 04:49:32;;;;;;;4.07;3.67;;;2.20;99.90;;;;;;5007367;28;20030;-68
2021/03/18 04:51:57;;;;;;;5.60;3.83;;;2.20;99.90;;;;;;5016894;28;20474;-69
2021/03/18 04:54:23;;;;;;;7.68;3.47;;;2.30;99.90;;;;;;5019936;28;20037;-70
2021/03/18 04:56:50;;;;;;;4.00;2.97;;;2.30;99.90;;;;;;5036566;28;20045;-70
2021/03/18 04:59:17;;;;;;;6.93;4.22;;;2.30;99.90;;;;;;5017811;28;20038;-71
2021/03/18 05:01:47;;;;;;;6.95;3.60;;;2.30;99.90;;;;;;5016403;28;20018;-69
2021/03/18 05:04:15;;;;;;;4.60;3.53;;;2.30;99.90;;;;;;5015867;28;20110;-70
2021/03/18 05:06:41;;;;;;;8.38;4.05;;;2.30;99.90;;;;;;5016355;28;20041;-71
2021/03/18 05:09:08;;;;;;;6.97;3.60;;;2.30;99.90;;;;;;5016239;28;20017;-69
2021/03/18 05:11:36;;;;;;;8.50;3.70;;;2.30;99.90;;;;;;5027315;28;20068;-70
2021/03/18 05:14:02;;;;;;;4.53;3.15;;;2.20;99.90;;;;;;5035831;28;20018;-69
2021/03/18 05:16:28;;;;;;;6.18;3.67;;;2.30;99.90;;;;;;5032857;28;20037;-71
2021/03/18 05:18:54;;;;;;;5.60;4.90;;;2.30;99.90;;;;;;5030422;28;20078;-70
2021/03/18 05:21:20;;;;;;;5.57;4.13;;;2.30;99.90;;;;;;5027083;28;20086;-69
2021/03/18 05:23:46;;;;;;;6.65;3.97;;;2.30;99.90;;;;;;5023504;28;20101;-70
2021/03/18 05:26:11;;;;;;;4.63;3.20;;;2.30;99.90;;;;;;5026059;28;20026;-70
2021/03/18 05:28:37;;;;;;;5.05;3.80;;;2.30;99.90;;;;;;5023290;28;20041;-71
2021/03/18 05:31:03;;;;;;;5.88;3.17;;;2.30;99.90;;;;;;5025455;28;20084;-70
2021/03/18 05:33:29;;;;;;;5.18;3.35;;;2.30;99.90;;;;;;5012379;28;20441;-70
2021/03/18 05:35:55;;;;;;;6.03;3.80;;;2.30;99.90;;;;;;5037352;23;20073;-71
2021/03/18 05:38:21;;;;;;;6.22;4.72;;;2.20;99.90;;;;;;5020642;28;20034;-72
2021/03/18 05:40:54;;;;;;;5.30;4.18;;;2.20;99.90;;;;;;5025961;28;20029;-71
2021/03/18 05:43:22;;;;;;;6.20;4.13;;;2.20;99.90;;;;;;5028494;28;20033;-72
2021/03/18 05:45:48;;;;;;;4.93;3.80;;;2.10;99.90;;;;;;5024922;28;20034;-72
2021/03/18 05:48:14;;;;;;;9.18;4.15;;;2.10;99.90;;;;;;5024389;28;20029;-72
2021/03/18 05:50:41;;;;;;;4.38;3.97;;;2.10;99.90;;;;;;4996284;28;20018;-71
2021/03/18 05:53:10;;;;;;;8.82;4.97;;;2.20;99.90;;;;;;5004985;28;20054;-72
2021/03/18 05:55:36;;;;;;;4.75;3.90;;;2.20;99.90;;;;;;5002983;28;20097;-71
2021/03/18 05:58:04;;;;;;;8.00;4.13;;;2.20;99.90;;;;;;5009979;28;20522;-72
2021/03/18 06:00:32;;;;;;;7.25;4.10;;;2.20;99.90;;;;;;5005526;28;20347;-70
2021/03/18 06:02:58;;;;;;;5.35;4.00;;;2.30;99.90;;;;;;5004455;28;20408;-72
2021/03/18 06:05:24;;;;;;;6.97;3.72;;;2.30;99.90;;;;;;5011583;28;20049;-70
2021/03/18 06:07:50;;;;;;;5.25;3.70;;;2.30;99.90;;;;;;5009445;28;20030;-70
2021/03/18 06:10:21;;;;;;;5.07;4.40;;;2.20;99.90;;;;;;5011834;28;20026;-72
2021/03/18 06:12:49;;;;;;;7.25;3.90;;;2.30;99.90;;;;;;4999047;28;20034;-73
2021/03/18 06:15:17;;;;;;;8.20;3.92;;;2.30;99.90;;;;;;5001655;28;20327;-71
2021/03/18 06:17:43;;;;;;;9.50;4.45;;;2.30;99.90;;;;;;5004606;28;20041;-70
2021/03/18 06:20:14;;;;;;;12.23;4.53;;;2.40;99.90;;;;;;5011653;28;20026;-70
2021/03/18 06:22:48;;;;;;;6.03;3.85;;;2.40;99.90;;;;;;5012473;28;20048;-70
2021/03/18 06:25:32;;;;;;;7.57;4.10;;;2.50;99.90;;;;;;5008594;28;20027;-71
2021/03/18 06:28:19;;;;;;;6.22;4.38;;;2.50;99.90;;;;;;5009928;28;20035;-71
2021/03/18 06:31:16;;;;;;;7.07;4.10;;;2.60;99.90;;;;;;5009186;28;20374;-70
2021/03/18 06:33:47;;;;;;;5.60;3.95;;;2.80;99.90;;;;;;4991111;28;20117;-71
2021/03/18 06:36:20;;;;;;;4.53;3.72;;;2.80;99.90;;;;;;5011092;28;20042;-72
2021/03/18 06:39:21;;;;;;;5.40;4.30;;;2.90;99.90;;;;;;5005238;28;20030;-72
2021/03/18 06:41:55;;;;;;;12.20;3.85;;;3.10;99.90;;;;;;4916356;29;20063;-73
2021/03/18 06:44:25;;;;;;;4.97;3.90;;;3.00;99.90;;;;;;4997634;28;20049;-72
2021/03/18 06:47:06;;;;;;;5.15;3.45;;;3.10;99.90;;;;;;5016215;28;20048;-71
2021/03/18 06:49:32;;;;;;;;;;;3.30;99.90;;;;;;5010094;28;20026;-71
2021/03/18 06:52:07;;;;;;;6.88;3.58;;;3.40;99.90;;;;;;5015572;28;19928;-71
2021/03/18 06:54:38;;;;;;;3.80;3.30;;;3.30;99.90;;;;;;5015290;28;20018;-70
2021/03/18 06:57:04;;;;;;;8.40;3.85;;;3.40;99.90;;;;;;5004171;28;20022;-72
2021/03/18 06:59:37;;;;;;;5.57;3.45;;;3.30;99.90;;;;;;5017471;28;20030;-71
2021/03/18 07:02:10;;;;;;;8.23;3.53;;;3.50;99.90;;;;;;5006003;28;20034;-72
2021/03/18 07:04:40;;;;;;;6.00;3.38;;;3.70;99.90;;;;;;4999582;28;20029;-72
2021/03/18 07:07:07;;;;;;;5.72;3.95;;;3.70;99.90;;;;;;5009889;28;20446;-72
2021/03/18 07:09:33;;;;;;;5.45;2.92;;;3.90;99.90;;;;;;5014625;28;20125;-72
2021/03/18 07:12:01;;;;;;;4.05;3.47;;;4.10;66.00;;;;;;5003118;28;20042;-72
2021/03/18 07:15:04;;;;;;;6.50;3.83;;;4.00;62.30;;;;;;5005528;28;20021;-72
2021/03/18 07:17:33;;;;;;;8.38;4.53;;;3.60;99.90;;;;;;5005034;28;20461;-72
2021/03/18 07:20:08;;;;;;;5.75;4.00;;;3.60;99.90;;;;;;5002782;28;20552;-73
2021/03/18 07:22:41;;;;;;;7.60;4.50;;;3.70;99.90;;;;;;5030692;28;20113;-72
2021/03/18 07:25:09;;;;;;;6.25;3.67;;;3.70;99.90;;;;;;5014993;28;20030;-72
2021/03/18 07:27:40;;;;;;;6.32;4.90;;;3.80;99.90;;;;;;5004570;28;20041;-72
2021/03/18 07:30:07;;;;;;;5.75;4.47;;;3.70;99.90;;;;;;4998680;28;20034;-71
2021/03/18 07:32:33;;;;;;;5.93;4.55;;;3.80;99.90;;;;;;4994961;28;20030;-71
2021/03/18 07:34:59;;;;;;;6.82;4.60;;;3.90;99.90;;;;;;4995980;28;20030;-72
2021/03/18 07:37:25;;;;;;;5.82;4.25;;;4.00;99.90;;;;;;4995636;28;20069;-74
2021/03/18 07:39:50;;;;;;;6.80;4.53;;;4.10;99.90;;;;;;4995761;28;20112;-72
2021/03/18 07:42:17;;;;;;;5.65;4.07;;;4.30;99.90;;;;;;4995526;28;20033;-73
2021/03/18 07:44:44;;;;;;;6.38;4.30;;;4.40;73.20;;;;;;4995060;28;20041;-72
2021/03/18 07:47:11;;;;;;;6.53;4.05;;;4.50;84.20;;;;;;4995069;28;20033;-73
2021/03/18 07:49:42;;;;;;;5.88;5.25;;;4.60;29.60;;;;;;4994410;28;20121;-74
2021/03/18 07:52:15;;;;;;;5.47;4.18;;;4.40;90.90;;;;;;4994015;28;20026;-73
2021/03/18 07:54:55;;;;;;;7.35;5.10;;;4.40;99.90;;;;;;5001828;28;20072;-72
2021/03/18 07:57:21;;;;;;;8.18;5.20;;;4.60;94.10;;;;;;5014165;28;20033;-72
2021/03/18 07:59:47;;;;;;;7.22;4.78;;;4.80;39.80;;;;;;5013709;28;20026;-72
2021/03/18 08:02:22;;;;;;;6.60;4.40;;;5.10;1.00;;;;;;5013859;28;20120;-72
2021/03/18 08:04:53;;;;;;;5.72;4.60;;;5.30;1.00;;;;;;5008313;28;20022;-71
2021/03/18 08:07:41;;;;;;;9.07;5.43;;;5.20;1.00;;;;;;5000387;28;20037;-73
2021/03/18 08:10:23;;;;;;;7.53;5.00;;;4.90;26.20;;;;;;5013563;28;20040;-72
2021/03/18 08:13:00;;;;;;;8.15;4.57;;;4.90;6.10;;;;;;5013628;28;20113;-74
2021/03/18 08:15:33;;;;;;;10.63;6.78;;;4.80;40.70;;;;;;5003190;28;20033;-72
2021/03/18 08:18:14;;;;;;;8.02;5.22;;;4.80;11.20;;;;;;5000785;28;20030;-73
2021/03/18 08:20:42;;;;;;;9.32;5.35;;;4.50;92.70;;;;;;4994670;28;20058;-72
2021/03/18 08:23:35;;;;;;;7.63;4.85;;;4.70;77.40;;;;;;5008591;28;20030;-72
2021/03/18 08:26:04;;;;;;;10.43;5.60;;;5.00;43.50;;;;;;4971597;28;20057;-72
2021/03/18 08:28:34;;;;;;;6.35;5.75;;;5.10;11.90;;;;;;4980567;28;20052;-71
2021/03/18 08:31:00;;;;;;;6.22;5.47;;;5.20;1.00;;;;;;5009928;28;20088;-72
2021/03/18 08:33:33;;;;;;;9.70;6.22;;;5.50;1.00;;;;;;5005920;28;20110;-73
2021/03/18 08:36:17;;;;;;;9.60;5.90;;;5.60;1.00;;;;;;5004844;28;20485;-73
2021/03/18 08:38:43;;;;;;;14.30;5.90;;;5.80;1.00;;;;;;4991241;28;20050;-73
2021/03/18 08:41:09;;;;;;;7.78;5.63;;;6.00;1.00;;;;;;5005672;28;20056;-73
2021/03/18 08:44:12;;;;;;;7.20;5.63;;;5.80;1.00;;;;;;5010609;28;20026;-71
2021/03/18 08:46:49;;;;;;;12.45;5.95;;;5.70;1.00;;;;;;4991138;28;20030;-73
2021/03/18 08:49:28;;;;;;;8.07;5.25;;;5.40;1.00;;;;;;5002717;28;20109;-73
2021/03/18 08:51:54;;;;;;;8.75;6.18;;;5.60;1.00;;;;;;5002057;28;20034;-72
2021/03/18 08:54:38;;;;;;;5.72;4.80;;;5.90;99.90;;;;;;5008295;28;20399;-72
2021/03/18 08:57:04;;;;;;;7.55;5.05;;;6.00;99.90;;;;;;5005917;28;20034;-72
2021/03/18 08:59:30;;;;;;;6.00;5.40;;;5.80;99.90;;;;;;5020989;28;20044;-72
2021/03/18 09:02:10;;;;;;;6.65;5.80;;;5.30;1.00;;;;;;5014621;28;20087;-72
2021/03/18 09:04:37;;;;;;;7.97;6.10;;;5.10;1.00;;;;;;5012150;28;20034;-72
2021/03/18 09:07:04;;;;;;;6.80;5.47;;;5.10;1.00;;;;;;4998313;28;20088;-73
2021/03/18 09:09:29;;;;;;;15.10;6.13;;;5.70;1.00;;;;;;5012764;28;20068;-73
2021/03/18 09:11:55;;;;;;;8.85;5.07;;;6.40;99.90;;;;;;5007180;28;20030;-73
2021/03/18 09:14:21;;;;;;;10.43;5.13;;;6.80;1.00;;;;;;5004186;28;20153;-72
2021/03/18 09:16:47;;;;;;;9.70;5.68;;;7.00;1.00;;;;;;5005507;28;20026;-73
2021/03/18 09:19:13;;;;;;;9.20;5.53;;;6.70;39.00;;;;;;5002099;28;20030;-73
2021/03/18 09:21:40;;;;;;;9.38;6.00;;;7.20;1.00;;;;;;5003347;28;20026;-72
2021/03/18 09:24:09;;;;;;;6.47;5.57;;;6.80;1.00;;;;;;5006543;28;20108;-72
2021/03/18 09:26:35;;;;;;;5.30;4.68;;;7.60;99.90;;;;;;5003343;28;20021;-73
2021/03/18 09:29:00;;;;;;;6.13;4.72;;;8.00;1.00;;;;;;5003412;28;20113;-72
2021/03/18 09:31:26;;;;;;;5.30;4.70;;;8.20;99.90;;;;;;5009447;28;20058;-72
2021/03/18 09:33:55;;;;;;;6.25;4.70;;;8.20;1.00;;;;;;5012576;28;20022;-72
2021/03/18 09:36:28;;;;;;;7.05;5.38;;;8.50;39.00;;;;;;5012515;28;20057;-72
2021/03/18 09:38:59;;;;;;;6.30;4.60;;;8.10;99.90;;;;;;5013299;28;20511;-73
2021/03/18 09:41:26;;;;;;;;;;;8.10;99.90;;;;;;5002702;28;20403;-72
2021/03/18 09:44:07;;;;;;;4.35;3.47;;;7.80;1.00;;;;;;4994630;28;20350;-72
2021/03/18 09:46:33;;;;;;;7.82;4.30;;;7.40;99.90;;;;;;4992926;28;20109;-73
2021/03/18 09:48:59;;;;;;;6.20;4.25;;;7.80;99.90;;;;;;5002259;28;20062;-72
2021/03/18 09:51:25;;;;;;;5.18;4.22;;;7.80;99.90;;;;;;5007816;28;20557;-73
2021/03/18 09:54:02;;;;;;;5.50;2.88;;;7.50;25.40;;;;;;5004331;28;20474;-72
2021/03/18 09:56:33;;;;;;;6.53;3.17;;;6.70;99.90;;;;;;4999817;28;20022;-72
2021/03/18 09:59:01;;;;;;;;;;;6.60;1.00;;;;;;5011115;28;20428;-72
2021/03/18 10:01:27;;;;;;;7.50;4.25;;;6.50;99.90;;;;;;5015929;28;19909;-73
2021/03/18 10:04:03;;;;;;;6.32;4.55;;;6.20;99.90;;;;;;5002167;28;20034;-73
2021/03/18 10:06:33;;;;;;;5.93;5.22;;;6.20;99.90;;;;;;5014057;28;20057;-72
2021/03/18 10:09:28;;;;;;;9.48;4.80;;;6.10;77.00;;;;;;5008546;28;20038;-73
2021/03/18 10:11:53;;;;;;;4.97;4.20;;;6.10;99.90;;;;;;5002604;28;20030;-72
2021/03/18 10:14:20;;;;;;;11.07;5.45;;;5.80;99.90;;;;;;5019623;28;20074;-73
2021/03/18 10:16:52;;;;;;;6.78;5.18;;;6.00;99.90;;;;;;5019426;28;20049;-72
2021/03/18 10:19:19;;;;;;;7.55;4.20;;;5.80;99.90;;;;;;5018776;28;20105;-73
2021/03/18 10:21:45;;;;;;;8.45;5.00;;;5.80;96.90;;;;;;5003841;28;20023;-73
2021/03/18 10:24:14;;;;;;;5.53;4.90;;;6.00;72.20;;;;;;5011463;28;20026;-73
2021/03/18 10:26:41;;;;;;;5.32;4.25;;;5.70;99.90;;;;;;5008102;28;20027;-72
2021/03/18 10:29:08;;;;;;;5.00;4.43;;;5.70;99.90;;;;;;4999516;28;20030;-72
2021/03/18 10:31:36;;;;;;;5.88;4.57;;;5.70;99.90;;;;;;4995018;28;20059;-72
2021/03/18 10:34:02;;;;;;;6.53;4.32;;;5.80;99.90;;;;;;5012938;28;20033;-72
2021/03/18 10:36:46;;;;;;;7.82;4.78;;;5.90;95.50;;;;;;5009148;28;20030;-73
2021/03/18 10:39:13;;;;;;;6.32;4.72;;;5.90;99.90;;;;;;5001007;28;20074;-73
2021/03/18 10:41:54;;;;;;;7.35;4.53;;;6.00;99.90;;;;;;4976893;28;20081;-72
2021/03/18 10:44:21;;;;;;;7.88;4.88;;;6.20;99.90;;;;;;4983945;28;20115;-71
2021/03/18 10:46:48;;;;;;;6.55;4.65;;;6.40;99.90;;;;;;5009496;28;20014;-72
2021/03/18 10:49:15;;;;;;;7.07;4.13;;;6.20;1.00;;;;;;4989159;28;20034;-73
2021/03/18 10:51:52;;;;;;;5.68;3.95;;;6.10;1.00;;;;;;4983887;28;20053;-72
2021/03/18 10:54:22;;;;;;;10.25;4.50;;;6.20;1.00;;;;;;4988461;28;20035;-74
2021/03/18 10:56:50;;;;;;;7.00;5.65;;;6.30;1.10;;;;;;4978870;28;20049;-75
2021/03/18 10:59:16;;;;;;;8.45;6.20;;;6.50;99.90;;;;;;4977402;28;20042;-75
2021/03/18 11:01:42;;;;;;;6.80;5.55;;;6.40;1.00;;;;;;4976311;28;20384;-74
2021/03/18 11:04:08;;;;;;;7.15;4.03;;;6.60;99.90;;;;;;4979059;28;20114;-76
2021/03/18 11:06:47;;;;;;;7.18;4.95;;;6.30;99.90;;;;;;4980780;28;20412;-71
2021/03/18 11:09:14;;;;;;;6.15;4.43;;;6.20;99.90;;;;;;4978062;28;20027;-72
2021/03/18 11:11:39;;;;;;;5.63;4.60;;;6.30;99.90;;;;;;4977334;28;20070;-73
2021/03/18 11:14:09;;;;;;;5.75;4.03;;;6.30;99.90;;;;;;4984109;28;20030;-74
2021/03/18 11:16:35;;;;;;;5.95;5.25;;;6.50;99.90;;;;;;4991074;28;20031;-74
2021/03/18 11:19:04;;;;;;;7.43;4.32;;;6.60;1.00;;;;;;4979795;28;20045;-74
2021/03/18 11:21:40;;;;;;;6.93;4.53;;;6.60;1.00;;;;;;4994383;28;20038;-74
2021/03/18 11:24:09;;;;;;;6.53;4.72;;;6.80;99.90;;;;;;4999517;28;20118;-74
2021/03/18 11:26:36;;;;;;;6.55;4.00;;;6.80;1.00;;;;;;4999853;28;20118;-73
2021/03/18 11:29:16;;;;;;;4.15;3.83;;;6.80;35.50;;;;;;5000864;28;20030;-75
2021/03/18 11:31:50;;;;;;;7.32;4.30;;;7.60;99.90;;;;;;5001212;28;20478;-74
2021/03/18 11:36:48;;;;;;;4.82;4.13;;;7.50;99.90;;;;;;5012505;28;20073;-75
2021/03/18 11:39:18;;;;;;;5.07;4.00;;;7.80;1.00;;;;;;5013473;28;20403;-76
2021/03/18 11:41:44;;;;;;;4.88;4.32;;;7.90;99.90;;;;;;5013273;28;20094;-74
2021/03/18 11:44:10;;;;;;;5.35;4.18;;;8.50;1.00;;;;;;5008739;28;20030;-71
2021/03/18 11:46:36;;;;;;;4.43;4.03;;;8.40;1.00;;;;;;4987212;28;20026;-69
2021/03/18 11:49:01;;;;;;;6.85;4.32;;;7.90;99.90;;;;;;4977935;28;20035;-70
2021/03/18 11:51:27;;;;;;;7.18;3.95;;;7.80;99.90;;;;;;4982026;28;20023;-71
2021/03/18 11:53:53;;;;;;;5.25;4.07;;;7.40;99.90;;;;;;4978940;28;20030;-72
2021/03/18 11:56:20;;;;;;;6.50;4.57;;;7.30;99.90;;;;;;4980416;28;20437;-72
2021/03/18 11:58:46;;;;;;;4.80;4.05;;;7.20;19.40;;;;;;4984822;28;20442;-71
2021/03/18 12:01:14;;;;;;;6.78;4.18;;;7.00;99.90;;;;;;4984224;28;20105;-71
2021/03/18 12:03:39;;;;;;;5.10;3.95;;;7.20;99.90;;;;;;4981120;28;20082;-72
2021/03/18 12:06:05;;;;;;;5.82;3.83;;;7.00;99.90;;;;;;4979682;28;20058;-71
2021/03/18 12:08:30;;;;;;;5.55;3.70;;;6.80;99.90;;;;;;4977514;28;20022;-71
2021/03/18 12:10:56;;;;;;;6.75;4.15;;;6.80;99.90;;;;;;4978161;28;20118;-71
2021/03/18 12:13:22;;;;;;;4.72;3.35;;;7.00;99.90;;;;;;4983120;28;20019;-71
2021/03/18 12:15:48;;;;;;;4.82;3.72;;;7.40;9.60;;;;;;4981212;28;20081;-71
2021/03/18 12:18:14;;;;;;;4.13;3.22;;;7.20;99.90;;;;;;4980184;28;20027;-71
2021/03/18 12:20:39;;;;;;;5.22;3.60;;;7.10;1.00;;;;;;4978955;28;20118;-73
2021/03/18 12:23:05;;;;;;;3.38;3.08;;;7.00;99.90;;;;;;4978683;28;20069;-72
2021/03/18 12:25:31;;;;;;;3.90;3.53;;;6.80;90.90;;;;;;4977883;28;20038;-72
2021/03/18 12:27:56;;;;;;;4.55;3.35;;;6.90;1.00;;;;;;4964576;28;20078;-71
2021/03/18 12:30:23;;;;;;;3.40;2.92;;;6.80;1.00;;;;;;4967499;28;20027;-71
2021/03/18 12:32:50;;;;;;;6.35;3.58;;;7.00;1.00;;;;;;4978590;28;20023;-72
2021/03/18 12:35:18;;;;;;;10.25;4.00;;;6.80;1.00;;;;;;4979612;28;20026;-72
2021/03/18 12:37:46;;;;;;;5.65;4.53;;;6.60;1.80;;;;;;4991007;28;20023;-78
2021/03/18 12:40:13;;;;;;;10.27;4.40;;;6.30;49.40;;;;;;4991699;28;20015;-77
2021/03/18 12:42:39;;;;;;;10.50;4.50;;;6.50;1.00;;;;;;4991415;28;20318;-79
2021/03/18 12:45:07;;;;;;;4.22;3.58;;;6.50;1.00;;;;;;4992321;28;20043;-78
2021/03/18 12:47:33;;;;;;;3.83;3.50;;;6.30;1.00;;;;;;4992326;28;20046;-79
2021/03/18 12:49:58;;;;;;;6.22;4.00;;;6.00;88.40;;;;;;4992331;28;20035;-76
2021/03/18 12:52:26;;;;;;;5.78;3.67;;;6.00;99.90;;;;;;4992100;28;20011;-77
2021/03/18 12:54:51;;;;;;;5.72;3.67;;;6.30;99.90;;;;;;4986160;28;20023;-78
2021/03/18 12:57:17;;;;;;;5.85;3.47;;;6.40;99.90;;;;;;4996595;28;20049;-78
2021/03/18 12:59:43;;;;;;;5.47;3.65;;;6.60;99.90;;;;;;5023927;28;20535;-78
2021/03/18 13:02:09;;;;;;;5.43;3.97;;;6.50;99.90;;;;;;5022302;28;20094;-77
2021/03/18 13:04:34;;;;;;;5.95;4.03;;;6.40;99.90;;;;;;5006245;28;20478;-76
2021/03/18 13:07:00;;;;;;;4.38;3.58;;;6.50;69.80;;;;;;4988987;28;20055;-77
2021/03/18 13:09:29;;;;;;;4.80;4.30;;;6.80;91.10;;;;;;4987690;28;20027;-77
2021/03/18 13:11:55;;;;;;;5.35;3.42;;;7.00;99.90;;;;;;4989256;28;20027;-76
2021/03/18 13:14:20;;;;;;;7.10;3.90;;;6.90;1.00;;;;;;4988030;28;20122;-77